aviador You're here:

KRCM Decoded Metar

in _UNIDENTIFIED
Report Time2017-05-28 06:35:00
UTC Time2017-05-28 06:46:09
Flight Rules vfr VFR
Wind290° at 04 kt
W.Decomp.*RWY 31: 3.6 kt HW 1.8 kt LCW
RWY 36: 0.9 kt HW 3.9 kt LCW
W.Rank290° ranks 16
Current wind is below 290° avg. (7.1)
Visibility9999 m
Phenomena:N/A
Clouds:N/A
Expected CloudBase > 400 ft AGL from Temp-Dew spread
CeilingNone
Temp16°C (ISA +3)
Dew Point15°C (94% RH)
QNH1011 hPa
Density Alt1,404 ft
Elevation801 ft
Report Wrong Elevation
Raw Report
KRCM 280635Z AUTO 29004KT 10SM CLR 16/15 A2985 RMK AO2=

Extra information for KRCM:More info

Metar Taf Metar & Taf Last 4 Metars F.Rules Stats Wind Profile Meteogram Temp Stats Metar ALERT Operation Metar Decoded Social comments